Time;durP1;ratioP1;P1;durP2;ratioP2;P2;SDS_P1;SDS_P2;PMS_P1;PMS_P2;Temp;Humidity;BMP_temperature;BMP_pressure;BME280_temperature;BME280_humidity;BME280_pressure;Samples;Min_cycle;Max_cycle;Signal;HPM_P1;HPM_P2
2021/12/16 19:42:43;;;;;;;73.53;30.27;;;10.10;99.40;;;;;;5091393;27;1250258;-77
2021/12/16 19:45:11;;;;;;;74.83;30.90;;;10.10;99.90;;;;;;5128913;28;20441;-78
2021/12/16 19:47:38;;;;;;;61.60;27.70;;;10.10;99.90;;;;;;5106970;28;20437;-79
2021/12/16 19:50:05;;;;;;;71.73;28.20;;;10.10;99.90;;;;;;5107305;28;20424;-78
2021/12/16 19:52:31;;;;;;;70.20;29.03;;;10.10;99.90;;;;;;5104466;27;20475;-77
2021/12/16 19:54:57;;;;;;;73.18;35.15;;;10.10;99.90;;;;;;5109305;28;20456;-77
2021/12/16 19:57:23;;;;;;;70.53;28.97;;;10.20;99.90;;;;;;5105188;28;20160;-77
2021/12/16 19:59:49;;;;;;;70.47;29.43;;;10.10;99.90;;;;;;5112933;28;20172;-80
2021/12/16 20:02:15;;;;;;;71.97;28.30;;;10.20;99.90;;;;;;5105156;28;20569;-79
2021/12/16 20:04:46;;;;;;;72.80;27.90;;;10.20;99.90;;;;;;5099322;28;20776;-78
2021/12/16 20:07:19;;;;;;;64.73;27.17;;;10.20;99.90;;;;;;5110161;28;20417;-77
2021/12/16 20:09:47;;;;;;;55.53;26.50;;;10.20;99.90;;;;;;5105198;28;20933;-78
2021/12/16 20:12:18;;;;;;;60.47;25.93;;;10.20;99.90;;;;;;5104800;28;20814;-79
2021/12/16 20:14:45;;;;;;;62.00;25.50;;;10.20;99.90;;;;;;5112668;28;20444;-78
2021/12/16 20:17:20;;;;;;;67.33;28.77;;;10.20;99.90;;;;;;5116249;28;20798;-79
2021/12/16 20:19:50;;;;;;;72.27;30.27;;;10.20;99.90;;;;;;5112000;28;20425;-78
2021/12/16 20:22:20;;;;;;;79.53;28.67;;;10.20;99.90;;;;;;5101997;28;20468;-79
2021/12/16 20:24:49;;;;;;;63.57;28.67;;;10.20;99.90;;;;;;5114798;28;20421;-78
2021/12/16 20:27:24;;;;;;;63.07;27.20;;;10.20;99.90;;;;;;5097761;28;20483;-79
2021/12/16 20:30:09;;;;;;;66.73;27.93;;;10.20;99.90;;;;;;5104707;28;20521;-77
2021/12/16 20:32:40;;;;;;;122.40;56.23;;;10.10;99.90;;;;;;5109490;28;20430;-78
2021/12/16 20:35:16;;;;;;;67.90;29.90;;;10.10;99.90;;;;;;5093182;28;20433;-78
2021/12/16 20:37:44;;;;;;;55.60;28.00;;;10.10;99.90;;;;;;5102225;28;20414;-78
2021/12/16 20:40:16;;;;;;;60.13;28.67;;;10.10;99.90;;;;;;5092175;28;20413;-78
2021/12/16 20:42:46;;;;;;;56.60;29.63;;;10.10;99.90;;;;;;5100830;28;20430;-78
2021/12/16 20:45:25;;;;;;;66.23;27.10;;;10.10;99.90;;;;;;5102852;28;20470;-77
2021/12/16 20:47:54;;;;;;;62.30;29.50;;;10.10;99.90;;;;;;5099066;28;20460;-76
2021/12/16 20:50:23;;;;;;;58.33;26.73;;;10.10;99.90;;;;;;5102175;28;20408;-78
2021/12/16 20:52:48;;;;;;;74.33;34.53;;;10.10;99.90;;;;;;5104791;28;20429;-77
2021/12/16 20:55:22;;;;;;;66.00;33.70;;;10.10;99.90;;;;;;5089832;28;20430;-77
2021/12/16 20:57:48;;;;;;;58.27;28.70;;;10.10;99.90;;;;;;5103111;28;20169;-79
2021/12/16 21:00:19;;;;;;;64.67;28.63;;;10.20;99.90;;;;;;5086245;28;20427;-78
2021/12/16 21:02:45;;;;;;;66.67;28.70;;;10.10;99.90;;;;;;5094909;28;20545;-79
2021/12/16 21:05:22;;;;;;;57.73;27.57;;;10.10;99.90;;;;;;5111588;28;20475;-77
2021/12/16 21:07:48;;;;;;;64.07;29.17;;;10.10;99.90;;;;;;5085657;28;20429;-80
2021/12/16 21:10:14;;;;;;;64.17;28.30;;;10.10;99.90;;;;;;5108516;28;20462;-78
2021/12/16 21:12:40;;;;;;;64.33;30.20;;;10.00;99.90;;;;;;5093062;28;20181;-77
2021/12/16 21:15:08;;;;;;;69.13;30.97;;;10.10;99.90;;;;;;5095509;28;20455;-77
2021/12/16 21:17:35;;;;;;;67.57;29.90;;;10.10;99.90;;;;;;5100510;28;20419;-77
2021/12/16 21:20:07;;;;;;;69.03;28.50;;;10.10;99.90;;;;;;5092477;28;20407;-79
2021/12/16 21:22:33;;;;;;;95.80;39.97;;;10.10;99.90;;;;;;5089453;28;20556;-81
2021/12/16 21:24:59;;;;;;;57.53;27.30;;;10.10;99.90;;;;;;5103632;28;20465;-79
2021/12/16 21:27:27;;;;;;;60.27;26.57;;;10.20;99.90;;;;;;5104529;28;20433;-81
2021/12/16 21:29:53;;;;;;;76.37;34.47;;;10.20;99.90;;;;;;5086249;28;20427;-80
2021/12/16 21:32:20;;;;;;;75.90;34.03;;;10.20;99.90;;;;;;5087907;28;20473;-80
2021/12/16 21:34:55;;;;;;;78.63;35.13;;;10.20;99.90;;;;;;5091925;28;20490;-77
2021/12/16 21:37:21;;;;;;;66.73;28.90;;;10.20;99.90;;;;;;5100010;28;20453;-76
2021/12/16 21:39:48;;;;;;;59.80;28.37;;;10.20;99.90;;;;;;5103674;28;20476;-76
2021/12/16 21:42:27;;;;;;;91.50;35.73;;;10.20;99.90;;;;;;5096436;28;20196;-77
2021/12/16 21:44:54;;;;;;;73.93;32.60;;;10.20;99.90;;;;;;5082689;28;20503;-77
2021/12/16 21:47:20;;;;;;;68.67;29.10;;;10.20;99.90;;;;;;5078814;28;20423;-78
2021/12/16 21:49:46;;;;;;;93.20;38.00;;;10.20;99.90;;;;;;5078517;28;20416;-78
2021/12/16 21:52:12;;;;;;;134.63;52.17;;;10.20;99.90;;;;;;5094216;28;20440;-78
2021/12/16 21:54:38;;;;;;;180.67;68.13;;;10.20;99.90;;;;;;5076636;28;20471;-78
2021/12/16 21:57:05;;;;;;;139.90;55.83;;;10.20;99.90;;;;;;5079768;28;20462;-80
2021/12/16 21:59:31;;;;;;;208.50;81.40;;;10.20;99.90;;;;;;5100929;28;20409;-81
2021/12/16 22:01:57;;;;;;;235.67;92.87;;;10.20;99.90;;;;;;5101412;28;20792;-81
2021/12/16 22:04:25;;;;;;;162.63;63.67;;;10.20;99.90;;;;;;5082819;28;20437;-79
2021/12/16 22:06:52;;;;;;;119.00;55.67;;;10.20;99.80;;;;;;5084610;28;20431;-80
2021/12/16 22:09:18;;;;;;;81.73;37.10;;;10.20;99.80;;;;;;5081111;28;20418;-81
2021/12/16 22:11:44;;;;;;;72.57;33.00;;;10.20;99.80;;;;;;5099052;28;20427;-80
2021/12/16 22:14:10;;;;;;;64.80;30.90;;;10.20;99.80;;;;;;5100576;28;20204;-80
2021/12/16 22:16:38;;;;;;;68.97;29.43;;;10.20;99.80;;;;;;5100796;28;20410;-79
2021/12/16 22:19:15;;;;;;;63.43;31.53;;;10.20;99.80;;;;;;5101236;28;20417;-80
2021/12/16 22:21:52;;;;;;;82.33;41.47;;;10.20;99.80;;;;;;5084009;28;20534;-80
2021/12/16 22:24:19;;;;;;;77.20;39.50;;;10.20;99.80;;;;;;5088630;28;20460;-80
2021/12/16 22:26:45;;;;;;;69.70;30.50;;;10.20;99.80;;;;;;5101887;28;20429;-81
2021/12/16 22:29:11;;;;;;;71.43;29.00;;;10.20;99.70;;;;;;5100414;28;20448;-80
2021/12/16 22:31:40;;;;;;;81.53;33.87;;;10.10;99.80;;;;;;5100408;28;20414;-80
2021/12/16 22:34:07;;;;;;;70.40;33.67;;;10.10;99.90;;;;;;5085078;28;20502;-80
2021/12/16 22:36:44;;;;;;;68.43;30.20;;;10.10;99.90;;;;;;5084193;28;20420;-80
2021/12/16 22:39:14;;;;;;;60.43;29.73;;;10.10;99.90;;;;;;5080903;28;20419;-81
2021/12/16 22:41:40;;;;;;;62.40;28.37;;;10.10;99.90;;;;;;5078813;28;20463;-80
2021/12/16 22:44:07;;;;;;;62.53;28.57;;;10.10;99.70;;;;;;5079788;28;20450;-80
2021/12/16 22:46:32;;;;;;;63.80;27.07;;;10.10;99.80;;;;;;5080735;28;20177;-80
2021/12/16 22:48:58;;;;;;;76.23;32.50;;;10.10;99.90;;;;;;5101340;28;20430;-80
2021/12/16 22:51:24;;;;;;;68.27;31.53;;;10.10;99.90;;;;;;5107623;28;20200;-79
2021/12/16 22:53:51;;;;;;;63.50;29.30;;;10.10;99.90;;;;;;5108579;28;20172;-80
2021/12/16 22:56:18;;;;;;;71.03;31.63;;;10.10;99.90;;;;;;5108786;28;20490;-79
2021/12/16 22:58:45;;;;;;;67.07;28.77;;;10.10;99.90;;;;;;5079756;28;20423;-80
2021/12/16 23:01:18;;;;;;;71.70;29.70;;;10.10;99.90;;;;;;5080751;28;20835;-79
2021/12/16 23:03:46;;;;;;;69.33;27.60;;;10.00;99.90;;;;;;5078098;28;20439;-79
2021/12/16 23:06:12;;;;;;;80.67;31.00;;;10.10;99.90;;;;;;5081968;28;20443;-79
2021/12/16 23:08:44;;;;;;;71.43;29.97;;;10.00;99.90;;;;;;5103213;28;20509;-80
2021/12/16 23:11:14;;;;;;;73.00;31.57;;;10.00;99.90;;;;;;5091800;28;20836;-79
2021/12/16 23:13:42;;;;;;;73.70;29.13;;;10.00;99.90;;;;;;5110558;28;20410;-80
2021/12/16 23:24:15;;;;;;;73.67;30.60;;;10.00;99.90;;;;;;5080530;28;20419;-80
2021/12/16 23:26:42;;;;;;;72.03;29.20;;;10.00;99.90;;;;;;5081227;28;20438;-80
2021/12/16 23:29:08;;;;;;;61.70;28.00;;;10.00;99.90;;;;;;5087157;28;20407;-81
2021/12/16 23:31:34;;;;;;;68.87;29.30;;;10.00;99.90;;;;;;5089525;28;20395;-80
2021/12/16 23:34:02;;;;;;;67.63;29.37;;;10.00;99.90;;;;;;5123703;28;20491;-79
2021/12/16 23:36:28;;;;;;;69.43;30.23;;;10.00;99.90;;;;;;5079088;28;20218;-80
2021/12/16 23:46:48;;;;;;;73.97;29.17;;;10.10;99.90;;;;;;5097920;28;21018;-81
2021/12/16 23:55:00;;;;;;;68.27;29.13;;;10.10;99.90;;;;;;5035684;28;20445;-80
2021/12/16 23:57:26;;;;;;;66.30;28.73;;;10.10;99.90;;;;;;5068923;28;20421;-80
2021/12/16 23:59:52;;;;;;;56.67;27.90;;;10.10;99.90;;;;;;5078592;28;20986;-80
